createdAt,value
2022-12-19T00:00:45.474Z,68.80
2022-12-19T00:01:45.702Z,68.48
2022-12-19T00:02:46.868Z,67.84
2022-12-19T00:03:45.973Z,67.19
2022-12-19T00:04:46.111Z,66.39
2022-12-19T00:05:47.294Z,62.52
2022-12-19T00:06:46.577Z,78.15
2022-12-19T00:07:46.894Z,65.26
2022-12-19T00:08:47.795Z,58.65
2022-12-19T00:09:48.262Z,63.00
2022-12-19T00:10:47.313Z,63.16
2022-12-19T00:11:49.258Z,79.60
2022-12-19T00:12:47.632Z,65.10
2022-12-19T00:13:47.822Z,65.26
2022-12-19T00:14:47.959Z,66.06
2022-12-19T00:15:48.108Z,73.96
2022-12-19T00:16:48.263Z,64.78
2022-12-19T00:17:48.475Z,69.61
2022-12-19T00:18:48.610Z,78.79
2022-12-19T00:19:49.632Z,64.61
2022-12-19T00:20:49.015Z,65.26
2022-12-19T00:21:50.025Z,86.53
2022-12-19T00:22:49.805Z,77.99
2022-12-19T00:23:50.264Z,64.61
2022-12-19T00:24:49.491Z,62.84
2022-12-19T00:25:50.764Z,61.87
2022-12-19T00:26:49.850Z,65.26
2022-12-19T00:27:50.035Z,63.16
2022-12-19T00:28:50.179Z,60.91
2022-12-19T00:29:50.340Z,69.77
2022-12-19T00:30:50.501Z,65.26
2022-12-19T00:31:50.789Z,81.53
2022-12-19T00:32:51.799Z,66.06
2022-12-19T00:33:51.802Z,61.71
2022-12-19T00:34:51.397Z,64.61
2022-12-19T00:35:51.653Z,69.93
2022-12-19T00:36:51.783Z,66.71
2022-12-19T00:37:51.992Z,70.42
2022-12-19T00:38:53.626Z,65.58
2022-12-19T00:39:54.307Z,67.68
2022-12-19T00:40:53.265Z,61.55
2022-12-19T00:41:52.650Z,62.36
2022-12-19T00:42:53.752Z,79.28
2022-12-19T00:43:54.767Z,66.39
2022-12-19T00:44:53.115Z,66.87
2022-12-19T00:45:53.300Z,61.07
2022-12-19T00:46:55.128Z,67.03
2022-12-19T00:47:53.733Z,65.58
2022-12-19T00:48:55.268Z,61.23
2022-12-19T00:49:54.147Z,62.36
2022-12-19T00:50:54.277Z,58.81
2022-12-19T00:51:54.420Z,70.09
2022-12-19T00:52:54.562Z,72.99
2022-12-19T00:53:54.764Z,75.89
2022-12-19T00:54:55.398Z,79.12
2022-12-19T00:55:55.085Z,73.32
2022-12-19T00:56:55.224Z,62.84
2022-12-19T00:57:55.367Z,60.91
2022-12-19T00:58:55.496Z,59.62
2022-12-19T00:59:56.305Z,57.52
2022-12-19T01:00:55.905Z,58.33
2022-12-19T01:01:56.464Z,80.24
2022-12-19T01:02:56.300Z,63.49
2022-12-19T01:04:27.241Z,69.29
2022-12-19T01:04:59.269Z,70.25
2022-12-19T01:05:56.756Z,88.30
2022-12-19T01:07:01.713Z,72.99
2022-12-19T01:07:58.078Z,68.00
2022-12-19T01:08:57.286Z,72.03
2022-12-19T01:09:57.421Z,66.39
2022-12-19T01:10:58.303Z,75.73
2022-12-19T01:11:57.819Z,67.19
2022-12-19T01:12:57.850Z,60.42
2022-12-19T01:13:58.014Z,67.51
2022-12-19T01:15:04.677Z,71.70
2022-12-19T01:15:59.422Z,66.06
2022-12-19T01:16:58.551Z,64.78
2022-12-19T01:17:58.719Z,70.90
2022-12-19T01:19:00.316Z,68.00
2022-12-19T01:19:59.019Z,69.29
2022-12-19T01:20:59.772Z,68.32
2022-12-19T01:21:59.447Z,62.04
2022-12-19T01:23:00.007Z,66.55
2022-12-19T01:24:00.861Z,70.09
2022-12-19T01:24:59.872Z,80.89
2022-12-19T01:26:00.062Z,60.42
2022-12-19T01:27:00.774Z,70.09
2022-12-19T01:28:00.425Z,61.87
2022-12-19T01:29:01.276Z,76.22
2022-12-19T01:30:02.271Z,75.25
2022-12-19T01:31:02.274Z,78.47
2022-12-19T01:32:01.884Z,83.47
2022-12-19T01:33:01.313Z,69.93
2022-12-19T01:34:02.272Z,72.35
2022-12-19T01:35:01.820Z,68.00
2022-12-19T01:36:01.855Z,67.35
2022-12-19T01:37:02.040Z,67.84
2022-12-19T01:38:08.422Z,65.26
2022-12-19T01:39:03.476Z,63.81
2022-12-19T01:40:02.667Z,63.49
2022-12-19T01:41:03.810Z,82.66
2022-12-19T01:42:03.776Z,65.58
2022-12-19T01:43:03.289Z,79.12
2022-12-19T01:44:03.469Z,78.79
2022-12-19T01:45:03.636Z,90.88
2022-12-19T01:46:03.867Z,65.74
2022-12-19T01:47:03.945Z,75.89
2022-12-19T01:48:04.109Z,78.79
2022-12-19T01:49:04.272Z,77.99
2022-12-19T01:50:04.425Z,67.84
2022-12-19T01:51:04.823Z,78.47
2022-12-19T01:52:05.778Z,65.74
2022-12-19T01:53:05.023Z,60.59
2022-12-19T01:54:05.188Z,75.73
2022-12-19T01:55:06.367Z,62.36
2022-12-19T01:56:08.293Z,61.39
2022-12-19T01:57:05.649Z,77.67
2022-12-19T01:58:05.823Z,82.66
2022-12-19T01:59:07.022Z,70.74
2022-12-19T02:00:07.791Z,64.61
2022-12-19T02:01:06.538Z,61.55
2022-12-19T02:02:06.746Z,69.77
2022-12-19T02:03:07.335Z,62.84
2022-12-19T02:04:07.773Z,59.78
2022-12-19T02:05:07.790Z,66.39
2022-12-19T02:06:09.744Z,65.58
2022-12-19T02:07:15.958Z,66.87
2022-12-19T02:08:10.113Z,62.84
2022-12-19T02:09:08.289Z,62.36
2022-12-19T02:10:08.043Z,61.55
2022-12-19T02:11:08.084Z,61.39
2022-12-19T02:12:08.261Z,61.07
2022-12-19T02:13:08.418Z,75.73
2022-12-19T02:14:08.568Z,71.38
2022-12-19T02:15:09.749Z,75.73
2022-12-19T02:16:08.930Z,60.91
2022-12-19T02:17:08.986Z,67.51
2022-12-19T02:18:09.189Z,77.67
2022-12-19T02:19:09.393Z,81.53
2022-12-19T02:20:09.538Z,81.21
2022-12-19T02:21:10.294Z,78.96
2022-12-19T02:22:12.716Z,79.12
2022-12-19T02:23:10.305Z,61.07
2022-12-19T02:24:10.322Z,60.91
2022-12-19T02:25:10.908Z,66.23
2022-12-19T02:26:11.301Z,69.45
2022-12-19T02:27:11.867Z,69.45
2022-12-19T02:28:10.977Z,87.98
2022-12-19T02:29:11.251Z,81.69
2022-12-19T02:30:11.448Z,77.02
2022-12-19T02:31:16.787Z,75.73
2022-12-19T02:32:12.757Z,65.26
2022-12-19T02:33:11.998Z,62.84
2022-12-19T02:34:12.149Z,64.78
2022-12-19T02:35:12.269Z,68.00
2022-12-19T02:36:12.497Z,62.52
2022-12-19T02:37:12.616Z,73.48
2022-12-19T02:38:13.761Z,79.12
2022-12-19T02:39:13.017Z,60.91
2022-12-19T02:40:13.244Z,79.12
2022-12-19T02:41:13.478Z,75.89
2022-12-19T02:42:14.605Z,66.71
2022-12-19T02:43:14.272Z,79.44
2022-12-19T02:44:13.889Z,79.60
2022-12-19T02:45:15.611Z,59.78
2022-12-19T02:46:15.887Z,63.49
2022-12-19T02:47:15.269Z,64.29
2022-12-19T02:48:19.280Z,60.42
2022-12-19T02:49:19.170Z,82.66
2022-12-19T02:50:16.768Z,74.28
2022-12-19T02:51:15.113Z,71.22
2022-12-19T02:52:15.356Z,73.32
2022-12-19T02:53:15.487Z,67.84
2022-12-19T02:54:16.318Z,75.25
2022-12-19T02:55:16.039Z,69.45
2022-12-19T02:56:16.062Z,65.26
2022-12-19T02:57:16.239Z,61.39
2022-12-19T02:58:17.281Z,74.44
2022-12-19T02:59:16.532Z,77.34
2022-12-19T03:00:16.672Z,74.28
2022-12-19T03:01:16.978Z,79.28
2022-12-19T03:02:19.032Z,75.89
2022-12-19T03:03:17.299Z,65.10
2022-12-19T03:04:17.401Z,75.41
2022-12-19T03:05:17.551Z,82.82
2022-12-19T03:06:18.798Z,62.36
2022-12-19T03:07:18.005Z,62.52
2022-12-19T03:08:19.157Z,60.91
2022-12-19T03:09:18.781Z,76.38
2022-12-19T03:10:19.422Z,82.50
2022-12-19T03:11:18.548Z,71.38
2022-12-19T03:12:18.648Z,65.74
2022-12-19T03:13:18.785Z,75.09
2022-12-19T03:14:18.957Z,81.69
2022-12-19T03:15:19.841Z,71.54
2022-12-19T03:16:19.353Z,76.86
2022-12-19T03:17:19.414Z,66.06
2022-12-19T03:18:20.335Z,67.84
2022-12-19T03:19:20.302Z,80.24
2022-12-19T03:20:20.789Z,78.96
2022-12-19T03:21:20.798Z,75.41
2022-12-19T03:22:20.302Z,78.47
2022-12-19T03:23:21.157Z,78.31
2022-12-19T03:24:20.652Z,77.18
2022-12-19T03:25:20.819Z,78.15
2022-12-19T03:26:21.091Z,66.23
2022-12-19T03:27:21.248Z,73.96
2022-12-19T03:28:21.407Z,78.63
2022-12-19T03:29:21.584Z,77.83
2022-12-19T03:30:21.766Z,73.15
2022-12-19T03:31:21.935Z,69.13
2022-12-19T03:32:22.178Z,80.57
2022-12-19T03:33:24.262Z,72.99
2022-12-19T03:34:22.503Z,64.45
2022-12-19T03:35:22.707Z,69.77
2022-12-19T03:36:22.878Z,82.18
2022-12-19T03:37:23.075Z,77.67
2022-12-19T03:38:23.236Z,73.64
2022-12-19T03:39:23.417Z,77.02
2022-12-19T03:40:23.563Z,81.37
2022-12-19T03:41:23.772Z,84.92
2022-12-19T03:42:24.734Z,82.50
2022-12-19T03:43:24.107Z,80.73
2022-12-19T03:44:24.326Z,81.86
2022-12-19T03:45:24.545Z,77.50
2022-12-19T03:46:24.745Z,80.89
2022-12-19T03:47:25.971Z,75.89
2022-12-19T03:48:25.804Z,74.77
2022-12-19T03:49:25.320Z,83.79
2022-12-19T03:50:26.350Z,82.34
2022-12-19T03:51:25.702Z,78.96
2022-12-19T03:52:25.890Z,76.54
2022-12-19T03:53:27.070Z,80.24
2022-12-19T03:54:26.208Z,78.15
2022-12-19T03:55:28.307Z,78.79
2022-12-19T03:56:27.400Z,81.69
2022-12-19T03:57:27.344Z,77.50
2022-12-19T03:58:28.306Z,87.33
2022-12-19T03:59:27.176Z,79.92
2022-12-19T04:00:27.315Z,82.66
2022-12-19T04:01:27.591Z,79.76
2022-12-19T04:02:28.692Z,76.86
2022-12-19T04:03:28.997Z,76.22
2022-12-19T04:04:28.076Z,80.73
2022-12-19T04:05:28.270Z,82.82
2022-12-19T04:06:28.451Z,80.73
2022-12-19T04:07:28.657Z,77.99
2022-12-19T04:08:28.881Z,83.63
2022-12-19T04:09:29.051Z,86.21
2022-12-19T04:10:29.272Z,79.28
2022-12-19T04:11:29.451Z,83.79
2022-12-19T04:12:30.406Z,81.69
2022-12-19T04:13:29.823Z,80.24
2022-12-19T04:14:30.022Z,81.21
2022-12-19T04:15:30.833Z,84.11
2022-12-19T04:16:31.350Z,80.73
2022-12-19T04:17:30.621Z,82.50
2022-12-19T04:18:30.784Z,82.34
2022-12-19T04:19:30.962Z,80.24
2022-12-19T04:20:31.678Z,82.18
2022-12-19T04:21:31.837Z,82.34
2022-12-19T04:22:31.541Z,85.56
2022-12-19T04:23:31.693Z,81.21
2022-12-19T04:24:32.359Z,86.85
2022-12-19T04:25:32.013Z,81.53
2022-12-19T04:26:32.177Z,83.31
2022-12-19T04:27:32.460Z,84.27
2022-12-19T04:28:32.499Z,82.82
2022-12-19T04:29:32.660Z,84.59
2022-12-19T04:30:36.713Z,81.53
2022-12-19T04:31:33.840Z,82.66
2022-12-19T04:32:33.160Z,84.76
2022-12-19T04:33:33.857Z,86.21
2022-12-19T04:34:33.508Z,82.98
2022-12-19T04:35:34.356Z,85.40
2022-12-19T04:36:34.822Z,85.56
2022-12-19T04:37:34.818Z,87.33
2022-12-19T04:38:34.195Z,82.82
2022-12-19T04:39:34.348Z,85.40
2022-12-19T04:40:39.344Z,84.76
2022-12-19T04:41:36.608Z,83.79
2022-12-19T04:42:34.929Z,88.14
2022-12-19T04:43:35.058Z,83.63
2022-12-19T04:44:35.204Z,82.98
2022-12-19T04:45:35.396Z,82.34
2022-12-19T04:46:35.635Z,87.50
2022-12-19T04:47:35.817Z,82.50
2022-12-19T04:48:36.000Z,85.08
2022-12-19T04:49:36.124Z,83.63
2022-12-19T04:50:37.321Z,84.76
2022-12-19T04:51:37.329Z,84.76
2022-12-19T04:52:36.572Z,85.08
2022-12-19T04:53:36.729Z,81.53
2022-12-19T04:54:36.905Z,84.43
2022-12-19T04:55:37.821Z,83.31
2022-12-19T04:56:37.211Z,79.28
2022-12-19T04:57:37.462Z,82.02
2022-12-19T04:58:38.369Z,82.82
2022-12-19T04:59:37.779Z,80.24
2022-12-19T05:00:38.367Z,82.82
2022-12-19T05:01:38.928Z,80.57
2022-12-19T05:02:39.931Z,83.63
2022-12-19T05:03:38.646Z,80.57
2022-12-19T05:04:38.737Z,84.76
2022-12-19T05:05:39.819Z,84.92
2022-12-19T05:06:39.132Z,80.24
2022-12-19T05:07:39.351Z,87.01
2022-12-19T05:08:40.324Z,84.76
2022-12-19T05:09:40.685Z,82.02
2022-12-19T05:10:39.956Z,84.92
2022-12-19T05:11:40.761Z,85.72
2022-12-19T05:12:40.325Z,78.79
2022-12-19T05:13:40.602Z,83.31
2022-12-19T05:14:40.659Z,82.98
2022-12-19T05:15:41.838Z,92.17
2022-12-19T05:16:40.976Z,82.66
2022-12-19T05:17:41.861Z,84.59
2022-12-19T05:18:41.865Z,84.59
2022-12-19T05:19:42.324Z,81.21
2022-12-19T05:20:41.714Z,86.04
2022-12-19T05:21:41.855Z,81.21
2022-12-19T05:22:42.861Z,83.31
2022-12-19T05:23:42.105Z,84.11
2022-12-19T05:24:42.262Z,83.79
2022-12-19T05:25:42.371Z,84.27
2022-12-19T05:26:42.633Z,83.14
2022-12-19T05:27:42.730Z,84.43
2022-12-19T05:28:43.910Z,82.02
2022-12-19T05:29:43.105Z,80.89
2022-12-19T05:30:45.650Z,83.14
2022-12-19T05:31:44.493Z,77.99
2022-12-19T05:32:43.621Z,85.72
2022-12-19T05:33:44.375Z,80.08
2022-12-19T05:34:44.862Z,82.98
2022-12-19T05:35:44.091Z,85.56
2022-12-19T05:36:44.273Z,82.66
2022-12-19T05:37:45.195Z,84.76
2022-12-19T05:38:44.602Z,81.53
2022-12-19T05:39:45.688Z,81.86
2022-12-19T05:40:45.870Z,83.31
2022-12-19T05:41:49.011Z,83.31
2022-12-19T05:42:46.304Z,83.47
2022-12-19T05:43:46.917Z,81.05
2022-12-19T05:44:47.322Z,81.53
2022-12-19T05:45:45.804Z,82.34
2022-12-19T05:46:46.032Z,83.47
2022-12-19T05:47:46.885Z,81.53
2022-12-19T05:48:46.272Z,81.69
2022-12-19T05:49:46.442Z,84.59
2022-12-19T05:50:47.379Z,81.05
2022-12-19T05:51:48.256Z,80.89
2022-12-19T05:52:47.000Z,80.41
2022-12-19T05:53:47.191Z,84.11
2022-12-19T05:54:47.862Z,82.98
2022-12-19T05:55:47.502Z,82.66
2022-12-19T05:56:48.650Z,84.92
2022-12-19T05:57:47.797Z,83.79
2022-12-19T05:58:47.964Z,81.86
2022-12-19T05:59:48.959Z,82.98
2022-12-19T06:00:48.343Z,84.92
2022-12-19T06:01:49.512Z,84.27
2022-12-19T06:02:48.882Z,86.37
2022-12-19T06:03:48.954Z,82.34
2022-12-19T06:04:49.134Z,83.63
2022-12-19T06:05:49.279Z,85.08
2022-12-19T06:06:50.328Z,81.21
2022-12-19T06:07:50.202Z,80.73
2022-12-19T06:08:49.757Z,84.27
2022-12-19T06:09:49.949Z,80.89
2022-12-19T06:10:50.109Z,82.82
2022-12-19T06:11:50.277Z,80.41
2022-12-19T06:12:51.836Z,78.79
2022-12-19T06:13:50.597Z,85.08
2022-12-19T06:14:50.759Z,83.31
2022-12-19T06:15:52.010Z,79.92
2022-12-19T06:16:51.145Z,81.53
2022-12-19T06:17:51.298Z,81.05
2022-12-19T06:18:51.481Z,85.08
2022-12-19T06:19:53.323Z,82.98
2022-12-19T06:20:51.858Z,79.76
2022-12-19T06:21:52.034Z,85.72
2022-12-19T06:22:52.213Z,82.50
2022-12-19T06:23:53.330Z,81.37
2022-12-19T06:24:53.338Z,85.56
2022-12-19T06:25:52.736Z,82.34
2022-12-19T06:26:54.325Z,80.73
2022-12-19T06:27:53.076Z,81.37
2022-12-19T06:28:53.834Z,83.79
2022-12-19T06:29:53.459Z,82.18
2022-12-19T06:30:54.327Z,84.11
2022-12-19T06:31:54.059Z,80.24
2022-12-19T06:32:53.976Z,82.50
2022-12-19T06:33:54.871Z,82.18
2022-12-19T06:35:09.706Z,81.21
2022-12-19T06:35:57.345Z,82.02
2022-12-19T06:36:55.831Z,86.85
2022-12-19T06:38:00.733Z,91.04
2022-12-19T06:38:57.071Z,84.43
2022-12-19T06:39:55.299Z,83.95
2022-12-19T06:40:56.339Z,84.76
2022-12-19T06:41:55.586Z,80.89
2022-12-19T06:42:57.193Z,81.37
2022-12-19T06:43:55.955Z,80.73
2022-12-19T06:44:56.476Z,82.02
2022-12-19T06:45:56.898Z,81.21
2022-12-19T06:46:57.491Z,81.37
2022-12-19T06:47:56.655Z,80.89
2022-12-19T06:48:57.831Z,81.05
2022-12-19T06:49:57.841Z,81.86
2022-12-19T06:50:57.107Z,82.02
2022-12-19T06:51:57.838Z,81.37
2022-12-19T06:52:58.333Z,93.94
2022-12-19T06:53:57.629Z,92.01
2022-12-19T06:54:57.849Z,81.86
2022-12-19T06:55:58.870Z,83.63
2022-12-19T06:56:58.832Z,81.69
2022-12-19T06:57:58.342Z,83.63
2022-12-19T06:58:59.342Z,81.37
2022-12-19T06:59:58.755Z,82.18
2022-12-19T07:00:58.998Z,82.98
2022-12-19T07:01:59.123Z,84.43
2022-12-19T07:02:59.538Z,85.72
2022-12-19T07:04:00.334Z,79.92
2022-12-19T07:04:59.722Z,85.40
2022-12-19T07:05:59.912Z,99.90
2022-12-19T07:07:00.105Z,80.89
2022-12-19T07:08:00.263Z,85.08
2022-12-19T07:09:00.444Z,81.37
2022-12-19T07:10:00.623Z,83.47
2022-12-19T07:11:00.867Z,82.50
2022-12-19T07:12:01.404Z,80.73
2022-12-19T07:13:01.174Z,80.89
2022-12-19T07:14:02.354Z,82.34
2022-12-19T07:15:01.507Z,82.66
2022-12-19T07:16:02.420Z,80.41
2022-12-19T07:17:01.853Z,83.14
2022-12-19T07:18:02.978Z,80.08
2022-12-19T07:19:02.839Z,86.21
2022-12-19T07:20:04.207Z,80.08
2022-12-19T07:21:03.338Z,82.98
2022-12-19T07:22:02.830Z,83.31
2022-12-19T07:23:02.962Z,79.92
2022-12-19T07:24:03.101Z,81.37
2022-12-19T07:25:03.280Z,81.05
2022-12-19T07:26:04.373Z,82.66
2022-12-19T07:27:03.619Z,81.05
2022-12-19T07:28:04.699Z,81.21
2022-12-19T07:29:03.943Z,81.69
2022-12-19T07:30:04.103Z,83.95
2022-12-19T07:31:04.878Z,80.89
2022-12-19T07:32:04.583Z,80.57
2022-12-19T07:33:05.642Z,86.21
2022-12-19T07:34:04.904Z,80.24
2022-12-19T07:35:04.979Z,85.56
2022-12-19T07:36:05.151Z,84.27
2022-12-19T07:37:05.353Z,81.21
2022-12-19T07:38:05.519Z,82.02
2022-12-19T07:39:05.694Z,82.34
2022-12-19T07:40:05.889Z,84.11
2022-12-19T07:41:06.853Z,82.02
2022-12-19T07:42:06.252Z,80.08
2022-12-19T07:43:06.413Z,83.63
2022-12-19T07:44:06.613Z,79.60
2022-12-19T07:45:06.777Z,80.89
2022-12-19T07:46:07.918Z,88.78
2022-12-19T07:47:07.889Z,86.04
2022-12-19T07:48:08.430Z,84.43
2022-12-19T07:49:08.366Z,81.53
2022-12-19T07:50:07.764Z,85.72
2022-12-19T07:51:07.943Z,83.14
2022-12-19T07:52:08.884Z,84.92
2022-12-19T07:53:08.265Z,82.50
2022-12-19T07:54:08.462Z,85.56
2022-12-19T07:55:08.605Z,82.18
2022-12-19T07:56:09.843Z,83.63
2022-12-19T07:57:09.881Z,78.31
2022-12-19T07:58:09.153Z,90.23
2022-12-19T07:59:09.340Z,86.69
2022-12-19T08:00:09.519Z,81.37
2022-12-19T08:01:09.795Z,80.73
2022-12-19T08:02:10.091Z,81.05
2022-12-19T08:03:10.794Z,83.14
2022-12-19T08:04:11.432Z,80.89
2022-12-19T08:05:10.547Z,76.22
2022-12-19T08:06:10.737Z,81.53
2022-12-19T08:07:10.929Z,84.76
2022-12-19T08:08:11.088Z,81.05
2022-12-19T08:09:11.272Z,85.08
2022-12-19T08:10:11.439Z,82.18
2022-12-19T08:11:11.605Z,78.15
2022-12-19T08:12:11.784Z,82.98
2022-12-19T08:13:11.948Z,81.05
2022-12-19T08:14:13.348Z,80.41
2022-12-19T08:15:12.266Z,86.04
2022-12-19T08:16:12.451Z,83.79
2022-12-19T08:17:21.146Z,84.11
2022-12-19T08:18:15.839Z,81.53
2022-12-19T08:19:13.193Z,85.72
2022-12-19T08:20:13.237Z,86.21
2022-12-19T08:21:14.411Z,81.53
2022-12-19T08:22:13.547Z,83.79
2022-12-19T08:23:13.739Z,84.59
2022-12-19T08:24:14.845Z,81.86
2022-12-19T08:25:14.839Z,82.02
2022-12-19T08:26:14.355Z,81.53
2022-12-19T08:27:14.548Z,80.41
2022-12-19T08:28:17.213Z,81.37
2022-12-19T08:29:15.396Z,84.43
2022-12-19T08:30:16.847Z,82.02
2022-12-19T08:31:15.328Z,83.31
2022-12-19T08:32:20.558Z,81.37
2022-12-19T08:33:17.566Z,82.98
2022-12-19T08:34:16.451Z,85.08
2022-12-19T08:35:15.850Z,83.63
2022-12-19T08:36:16.034Z,84.59
2022-12-19T08:37:16.222Z,84.11
2022-12-19T08:38:16.413Z,82.98
2022-12-19T08:39:16.572Z,88.78
2022-12-19T08:40:17.400Z,82.50
2022-12-19T08:41:16.974Z,79.76
2022-12-19T08:42:17.195Z,82.66
2022-12-19T08:43:17.410Z,84.11
2022-12-19T08:44:17.601Z,81.05
2022-12-19T08:45:18.414Z,84.76
2022-12-19T08:46:19.022Z,78.96
2022-12-19T08:47:18.856Z,81.05
2022-12-19T08:48:18.889Z,82.82
2022-12-19T08:49:19.225Z,90.72
2022-12-19T08:50:18.634Z,84.11
2022-12-19T08:51:19.383Z,82.98
2022-12-19T08:52:19.858Z,82.66
2022-12-19T08:53:25.854Z,83.95
2022-12-19T08:54:21.340Z,79.76
2022-12-19T08:55:19.448Z,85.56
2022-12-19T08:56:19.691Z,83.79
2022-12-19T08:57:19.920Z,80.24
2022-12-19T08:58:20.951Z,82.82
2022-12-19T08:59:30.536Z,82.34
2022-12-19T09:00:21.218Z,80.41
2022-12-19T09:01:20.474Z,81.69
2022-12-19T09:02:20.665Z,79.44
2022-12-19T09:03:22.396Z,85.08
2022-12-19T09:05:58.358Z,86.21
2022-12-19T09:06:03.859Z,84.11
2022-12-19T09:06:22.411Z,79.12
2022-12-19T09:07:21.527Z,79.60
2022-12-19T09:08:22.400Z,82.98
2022-12-19T09:09:24.357Z,81.37
2022-12-19T09:10:22.105Z,80.73
2022-12-19T09:11:22.857Z,82.98
2022-12-19T09:12:22.493Z,81.86
2022-12-19T09:13:23.364Z,81.69
2022-12-19T09:14:22.885Z,80.41
2022-12-19T09:15:24.365Z,82.50
2022-12-19T09:16:23.988Z,79.92
2022-12-19T09:17:23.444Z,82.02
2022-12-19T09:18:24.423Z,85.08
2022-12-19T09:19:23.878Z,80.73
2022-12-19T09:20:24.103Z,80.24
2022-12-19T09:21:24.393Z,83.14
2022-12-19T09:22:29.266Z,82.34
2022-12-19T09:23:25.547Z,80.24
2022-12-19T09:24:25.400Z,84.43
2022-12-19T09:25:24.918Z,81.05
2022-12-19T09:26:26.361Z,80.24
2022-12-19T09:27:26.857Z,81.69
2022-12-19T09:28:27.893Z,83.31
2022-12-19T09:29:33.525Z,81.86
2022-12-19T09:30:27.668Z,79.76
2022-12-19T09:31:25.914Z,82.18
2022-12-19T09:32:27.361Z,83.31
2022-12-19T09:33:26.259Z,78.63
2022-12-19T09:34:33.059Z,81.86
2022-12-19T09:35:30.534Z,81.53
2022-12-19T09:36:28.017Z,82.02
2022-12-19T09:37:27.084Z,83.47
2022-12-19T09:38:27.284Z,82.98
2022-12-19T09:39:27.584Z,80.73
2022-12-19T09:40:28.620Z,79.92
2022-12-19T09:41:27.921Z,81.21
2022-12-19T09:42:27.967Z,82.98
2022-12-19T09:43:28.869Z,81.69
2022-12-19T09:44:28.271Z,82.34
2022-12-19T09:45:32.699Z,87.66
2022-12-19T09:46:28.710Z,82.50
2022-12-19T09:47:28.818Z,82.02
2022-12-19T09:48:29.018Z,83.79
2022-12-19T09:49:29.244Z,80.73
2022-12-19T09:50:29.520Z,82.34
2022-12-19T09:51:29.614Z,81.69
2022-12-19T09:52:31.613Z,81.53
2022-12-19T09:53:30.908Z,81.53
2022-12-19T09:54:30.910Z,80.41
2022-12-19T09:55:31.377Z,80.08
2022-12-19T09:56:31.370Z,81.37
2022-12-19T09:57:31.880Z,80.57
2022-12-19T09:58:31.907Z,83.14
2022-12-19T09:59:41.241Z,83.47
2022-12-19T10:00:33.379Z,81.37
2022-12-19T10:01:31.614Z,81.53
2022-12-19T10:02:31.792Z,85.72
2022-12-19T10:03:38.691Z,81.05
2022-12-19T10:04:33.931Z,82.34
2022-12-19T10:05:49.612Z,83.63
2022-12-19T10:07:07.616Z,80.41
2022-12-19T10:08:01.518Z,82.98
2022-12-19T10:08:37.351Z,85.24
2022-12-19T10:12:00.249Z,84.76
2022-12-19T10:12:35.428Z,79.28
2022-12-19T10:12:45.180Z,81.69
2022-12-19T10:12:45.819Z,80.73
2022-12-19T10:13:34.634Z,81.05
2022-12-19T10:14:33.830Z,77.18
2022-12-19T10:15:34.059Z,83.31
2022-12-19T10:16:34.201Z,80.24
2022-12-19T10:17:34.396Z,82.18
2022-12-19T10:18:34.591Z,80.73
2022-12-19T10:19:34.764Z,85.24
2022-12-19T10:20:34.973Z,84.11
2022-12-19T10:22:08.089Z,83.31
2022-12-19T10:22:39.738Z,76.70
2022-12-19T10:23:35.592Z,82.66
2022-12-19T10:24:36.374Z,82.66
2022-12-19T10:25:35.916Z,81.21
2022-12-19T10:26:36.102Z,80.08
2022-12-19T10:27:36.296Z,83.47
2022-12-19T10:28:37.492Z,82.18
2022-12-19T10:29:37.385Z,85.72
2022-12-19T10:30:36.791Z,81.53
2022-12-19T10:31:37.076Z,80.41
2022-12-19T10:32:37.195Z,81.69
2022-12-19T10:33:37.385Z,83.79
2022-12-19T10:34:40.859Z,84.27
2022-12-19T10:35:38.378Z,81.21
2022-12-19T10:37:12.460Z,86.04
2022-12-19T10:37:45.659Z,82.02
2022-12-19T10:38:45.475Z,80.41
2022-12-19T10:39:39.430Z,78.79
2022-12-19T10:40:39.404Z,81.86
2022-12-19T10:41:43.983Z,79.60
2022-12-19T10:42:41.043Z,83.14
2022-12-19T10:43:44.052Z,80.08
2022-12-19T10:44:41.950Z,78.79
2022-12-19T10:45:40.421Z,80.73
2022-12-19T10:46:40.938Z,81.21
2022-12-19T10:47:40.773Z,81.21
2022-12-19T10:48:40.161Z,86.04
2022-12-19T10:49:40.322Z,84.92
2022-12-19T10:50:41.438Z,80.73
2022-12-19T10:51:40.731Z,82.50
2022-12-19T10:52:40.954Z,82.18
2022-12-19T10:53:41.218Z,82.02
2022-12-19T10:54:41.293Z,79.76
2022-12-19T10:55:41.492Z,81.05
2022-12-19T10:56:41.658Z,81.21
2022-12-19T10:57:42.424Z,81.86
2022-12-19T10:58:43.744Z,80.89
2022-12-19T10:59:42.239Z,79.92
2022-12-19T11:00:42.404Z,81.21
2022-12-19T11:01:42.726Z,81.21
2022-12-19T11:02:44.797Z,81.69
2022-12-19T11:03:43.054Z,79.12
2022-12-19T11:04:43.082Z,80.57
2022-12-19T11:05:44.884Z,83.63
2022-12-19T11:06:43.377Z,78.47
2022-12-19T11:07:43.550Z,79.92
2022-12-19T11:08:44.979Z,80.73
2022-12-19T11:09:49.934Z,80.73
2022-12-19T11:11:13.828Z,81.21
2022-12-19T11:14:40.821Z,109.09
2022-12-19T11:17:11.663Z,80.73
2022-12-19T11:19:08.940Z,85.24
2022-12-19T11:19:52.768Z,79.60
2022-12-19T11:19:56.569Z,80.24
2022-12-19T11:19:56.601Z,80.89
2022-12-19T11:21:04.385Z,80.89
2022-12-19T11:27:25.494Z,82.02
2022-12-19T11:29:19.608Z,79.44
2022-12-19T11:29:30.355Z,83.63
2022-12-19T11:29:31.661Z,80.24
2022-12-19T11:29:32.143Z,82.34
2022-12-19T11:29:43.195Z,80.89
2022-12-19T11:30:08.456Z,79.76
2022-12-19T11:30:08.652Z,80.57
2022-12-19T11:30:34.346Z,83.14
2022-12-19T11:30:46.601Z,80.89
2022-12-19T11:30:46.943Z,81.05
2022-12-19T11:32:32.153Z,83.63
2022-12-19T11:32:52.104Z,82.18
2022-12-19T11:33:49.556Z,84.59
2022-12-19T11:34:48.696Z,81.05
2022-12-19T11:35:49.904Z,80.24
2022-12-19T11:36:49.054Z,79.76
2022-12-19T11:37:53.840Z,82.34
2022-12-19T11:38:50.410Z,81.37
2022-12-19T11:39:50.484Z,81.53
2022-12-19T11:40:50.027Z,80.08
2022-12-19T11:41:49.996Z,84.59
2022-12-19T11:43:10.965Z,78.96
2022-12-19T11:43:52.884Z,80.24
2022-12-19T11:44:51.890Z,84.59
2022-12-19T11:45:51.395Z,79.92
2022-12-19T11:46:51.931Z,80.24
2022-12-19T11:47:51.081Z,82.50
2022-12-19T11:48:51.258Z,78.79
2022-12-19T11:49:51.460Z,80.41
2022-12-19T11:50:51.644Z,82.66
2022-12-19T11:51:52.436Z,82.18
2022-12-19T11:53:14.635Z,81.05
2022-12-19T11:53:54.086Z,84.76
2022-12-19T11:54:52.292Z,82.50
2022-12-19T11:55:52.373Z,81.37
2022-12-19T11:56:53.910Z,81.86
2022-12-19T11:57:52.806Z,81.53
2022-12-19T11:58:54.400Z,79.76
2022-12-19T11:59:53.153Z,78.31
2022-12-19T12:00:53.303Z,80.73
2022-12-19T12:01:54.482Z,80.89
2022-12-19T12:02:54.444Z,80.89
2022-12-19T12:03:59.218Z,80.41
2022-12-19T12:04:55.030Z,82.18
2022-12-19T12:05:54.177Z,80.73
2022-12-19T12:06:54.984Z,83.31
2022-12-19T12:09:03.591Z,79.28
2022-12-19T12:10:53.824Z,81.53
2022-12-19T12:15:13.541Z,80.08
2022-12-19T12:18:01.389Z,78.31
2022-12-19T12:19:12.553Z,82.02
2022-12-19T12:21:57.694Z,85.08
2022-12-19T12:23:36.135Z,81.21
2022-12-19T12:27:29.811Z,82.02
2022-12-19T12:28:26.506Z,81.21
2022-12-19T12:30:14.651Z,78.63
2022-12-19T12:31:01.791Z,80.24
2022-12-19T12:31:05.559Z,89.75
2022-12-19T12:31:07.147Z,82.18
2022-12-19T12:31:09.680Z,82.98
2022-12-19T12:31:14.946Z,83.63
2022-12-19T12:31:15.728Z,80.24
2022-12-19T12:31:27.901Z,85.08
2022-12-19T12:31:38.992Z,80.73
2022-12-19T12:31:44.251Z,80.57
2022-12-19T12:31:45.497Z,82.02
2022-12-19T12:31:49.210Z,79.76
2022-12-19T12:31:49.211Z,82.34
2022-12-19T12:31:52.739Z,79.44
2022-12-19T12:35:33.275Z,82.18
2022-12-19T12:35:40.502Z,82.50
2022-12-19T12:35:42.377Z,79.44
2022-12-19T12:35:52.371Z,85.24
2022-12-19T12:35:57.121Z,80.73
2022-12-19T12:39:02.906Z,82.02
2022-12-19T12:40:03.408Z,79.60
2022-12-19T12:41:00.750Z,79.92
2022-12-19T12:42:00.941Z,81.05
2022-12-19T12:43:01.978Z,79.12
2022-12-19T12:44:01.944Z,79.92
2022-12-19T12:45:02.412Z,80.24
2022-12-19T12:46:01.682Z,80.73
2022-12-19T12:47:01.827Z,81.53
2022-12-19T12:48:01.947Z,81.21
2022-12-19T12:49:02.136Z,80.41
2022-12-19T12:50:02.330Z,82.66
2022-12-19T12:51:02.511Z,79.76
2022-12-19T12:52:02.668Z,80.73
2022-12-19T12:53:02.845Z,79.60
2022-12-19T12:54:03.026Z,79.12
2022-12-19T12:55:03.197Z,83.14
2022-12-19T12:56:05.679Z,81.37
2022-12-19T12:57:03.611Z,77.99
2022-12-19T12:58:04.218Z,80.24
2022-12-19T12:59:03.980Z,83.14
2022-12-19T13:00:04.917Z,80.73